Time;durP1;ratioP1;P1;durP2;ratioP2;P2;SDS_P1;SDS_P2;PMS_P1;PMS_P2;Temp;Humidity;BMP_temperature;BMP_pressure;BME280_temperature;BME280_humidity;BME280_pressure;Samples;Min_cycle;Max_cycle;Signal;HPM_P1;HPM_P2
2022/07/18 00:02:16;;;;;;;;;;;;;;;14.59;100.00;91625.22;4992472;28;19914;-67
2022/07/18 00:04:41;;;;;;;;;;;;;;;14.47;100.00;91627.72;4992393;28;20367;-67
2022/07/18 00:07:10;;;;;;;;;;;;;;;14.36;100.00;91630.69;4992679;28;20011;-67
2022/07/18 00:09:35;;;;;;;;;;;;;;;14.30;100.00;91623.91;4992625;28;19924;-67
2022/07/18 00:12:01;;;;;;;;;;;;;;;14.33;100.00;91623.25;4992295;28;19913;-67
2022/07/18 00:14:26;;;;;;;;;;;;;;;14.27;100.00;91618.41;4992490;28;20315;-67
2022/07/18 00:16:52;;;;;;;;;;;;;;;14.31;100.00;91624.69;4992687;28;19913;-67
2022/07/18 00:19:17;;;;;;;;;;;;;;;14.32;100.00;91629.72;4992495;28;19918;-66
2022/07/18 00:21:42;;;;;;;;;;;;;;;14.31;100.00;91635.38;4992462;28;19914;-66
2022/07/18 00:24:07;;;;;;;;;;;;;;;14.28;100.00;91628.78;4992148;28;20000;-66
2022/07/18 00:26:33;;;;;;;;;;;;;;;14.18;100.00;91625.59;4992317;28;19920;-66
2022/07/18 00:28:58;;;;;;;;;;;;;;;14.16;100.00;91622.47;4992299;28;19967;-66
2022/07/18 00:31:23;;;;;;;;;;;;;;;14.18;100.00;91623.72;4992221;28;20391;-66
2022/07/18 00:33:49;;;;;;;;;;;;;;;14.19;100.00;91621.84;4992268;28;19925;-66
2022/07/18 00:36:14;;;;;;;;;;;;;;;14.16;100.00;91627.81;4992123;28;19950;-66
2022/07/18 00:38:39;;;;;;;;;;;;;;;14.10;100.00;91627.19;4992219;28;20408;-66
2022/07/18 00:41:05;;;;;;;;;;;;;;;14.11;100.00;91630.66;4992188;28;19965;-66
2022/07/18 00:43:30;;;;;;;;;;;;;;;13.97;100.00;91626.22;4992034;28;19921;-66
2022/07/18 00:45:56;;;;;;;;;;;;;;;13.88;100.00;91622.72;4992167;28;19914;-66
2022/07/18 00:48:21;;;;;;;;;;;;;;;13.85;100.00;91627.91;4991961;28;19921;-66
2022/07/18 00:50:47;;;;;;;;;;;;;;;13.85;100.00;91626.03;4992043;28;19913;-66
2022/07/18 00:53:12;;;;;;;;;;;;;;;13.78;100.00;91623.81;4991866;28;19914;-66
2022/07/18 00:55:42;;;;;;;;;;;;;;;13.70;100.00;91626.44;4991866;28;19957;-66
2022/07/18 00:58:09;;;;;;;;;;;;;;;13.63;100.00;91629.59;4991717;28;20407;-66
2022/07/18 01:03:18;;;;;;;;;;;;;;;13.49;100.00;91626.22;4992187;28;20004;-66
2022/07/18 01:05:43;;;;;;;;;;;;;;;13.52;100.00;91630.16;4991677;28;19969;-66
2022/07/18 01:08:09;;;;;;;;;;;;;;;13.48;100.00;91630.78;4992655;28;19977;-66
2022/07/18 01:10:35;;;;;;;;;;;;;;;13.46;100.00;91632.19;4995648;28;19922;-66
2022/07/18 01:13:01;;;;;;;;;;;;;;;13.41;100.00;91630.44;4995615;28;19913;-66
2022/07/18 01:15:26;;;;;;;;;;;;;;;13.34;100.00;91630.09;4995745;28;19936;-66
2022/07/18 01:17:51;;;;;;;;;;;;;;;13.30;100.00;91633.69;4995797;28;19921;-67
2022/07/18 01:20:17;;;;;;;;;;;;;;;13.19;100.00;91635.84;4995731;28;19914;-66
2022/07/18 01:22:42;;;;;;;;;;;;;;;13.14;100.00;91635.94;4995649;28;20399;-66
2022/07/18 01:25:09;;;;;;;;;;;;;;;13.06;100.00;91642.00;4995687;28;19918;-66
2022/07/18 01:27:35;;;;;;;;;;;;;;;13.05;100.00;91640.44;4995638;28;19917;-66
2022/07/18 01:30:00;;;;;;;;;;;;;;;13.03;100.00;91640.75;4995531;28;19937;-66
2022/07/18 01:32:26;;;;;;;;;;;;;;;13.07;100.00;91641.69;4995318;28;19913;-66
2022/07/18 01:34:51;;;;;;;;;;;;;;;13.04;100.00;91647.66;4995452;28;19921;-66
2022/07/18 01:37:17;;;;;;;;;;;;;;;13.03;100.00;91639.94;4995435;28;19914;-66
2022/07/18 01:39:43;;;;;;;;;;;;;;;12.99;100.00;91637.13;4995273;28;19914;-66
2022/07/18 01:42:09;;;;;;;;;;;;;;;12.92;100.00;91644.75;4995271;28;20357;-66
2022/07/18 01:44:35;;;;;;;;;;;;;;;12.83;100.00;91641.25;4995272;28;19917;-67
2022/07/18 01:47:00;;;;;;;;;;;;;;;12.80;100.00;91637.31;4995307;28;19914;-67
2022/07/18 01:49:27;;;;;;;;;;;;;;;12.79;100.00;91640.28;4995278;28;19913;-66
2022/07/18 01:51:53;;;;;;;;;;;;;;;12.68;100.00;91638.94;4995157;28;19914;-66
2022/07/18 01:54:22;;;;;;;;;;;;;;;12.56;100.00;91642.16;4995156;28;19924;-66
2022/07/18 01:56:48;;;;;;;;;;;;;;;12.50;100.00;91640.69;4994974;28;19914;-66
2022/07/18 01:59:13;;;;;;;;;;;;;;;12.58;100.00;91645.31;4995087;28;20355;-67
2022/07/18 02:01:38;;;;;;;;;;;;;;;12.68;100.00;91637.06;4994954;28;19914;-66
2022/07/18 02:04:04;;;;;;;;;;;;;;;12.71;100.00;91633.00;4994737;28;19929;-67
2022/07/18 02:06:29;;;;;;;;;;;;;;;12.75;100.00;91644.63;4994619;28;19933;-67
2022/07/18 02:08:54;;;;;;;;;;;;;;;12.71;100.00;91633.00;4994821;28;19980;-67
2022/07/18 02:11:20;;;;;;;;;;;;;;;12.71;100.00;91633.78;4994758;28;20407;-67
2022/07/18 02:13:45;;;;;;;;;;;;;;;12.75;100.00;91642.75;4994669;28;19941;-67
2022/07/18 02:16:10;;;;;;;;;;;;;;;12.70;100.00;91636.75;4994613;28;19917;-67
2022/07/18 02:18:36;;;;;;;;;;;;;;;12.62;100.00;91637.47;4994666;28;19996;-67
2022/07/18 02:21:01;;;;;;;;;;;;;;;12.56;100.00;91640.28;4993475;28;20380;-67
2022/07/18 02:23:27;;;;;;;;;;;;;;;12.47;100.00;91638.66;4994511;28;20303;-67
2022/07/18 02:25:52;;;;;;;;;;;;;;;12.44;100.00;91640.00;4994567;28;19921;-67
2022/07/18 02:28:18;;;;;;;;;;;;;;;12.41;100.00;91647.84;4994210;28;20455;-67
2022/07/18 02:30:43;;;;;;;;;;;;;;;12.40;100.00;91643.59;4976742;28;19921;-67
2022/07/18 02:33:09;;;;;;;;;;;;;;;12.38;100.00;91654.56;4994154;28;19975;-67
2022/07/18 02:35:34;;;;;;;;;;;;;;;12.37;100.00;91646.88;4994211;28;19961;-67
2022/07/18 02:38:00;;;;;;;;;;;;;;;12.36;100.00;91647.97;4994290;28;19936;-68
2022/07/18 02:40:25;;;;;;;;;;;;;;;12.37;100.00;91654.88;4994162;28;20422;-67
2022/07/18 02:42:50;;;;;;;;;;;;;;;12.36;100.00;91650.63;4994053;28;19976;-67
2022/07/18 02:45:16;;;;;;;;;;;;;;;12.34;100.00;91648.25;4994039;28;19968;-67
2022/07/18 02:47:41;;;;;;;;;;;;;;;12.38;100.00;91654.56;4994110;28;19968;-67
2022/07/18 02:50:07;;;;;;;;;;;;;;;12.40;100.00;91656.94;4994064;28;19940;-67
2022/07/18 02:52:32;;;;;;;;;;;;;;;12.41;100.00;91653.19;4993955;28;20325;-67
2022/07/18 02:55:00;;;;;;;;;;;;;;;12.40;100.00;91654.25;4993861;28;19921;-67
2022/07/18 02:57:26;;;;;;;;;;;;;;;12.37;100.00;91654.88;4993611;28;20446;-67
2022/07/18 02:59:51;;;;;;;;;;;;;;;12.40;100.00;91664.94;4993883;28;19922;-67
2022/07/18 03:02:16;;;;;;;;;;;;;;;12.39;100.00;91652.69;4993710;28;20308;-67
2022/07/18 03:04:42;;;;;;;;;;;;;;;12.33;100.00;91654.69;4993620;28;19917;-67
2022/07/18 03:07:07;;;;;;;;;;;;;;;12.28;100.00;91652.91;4993820;28;20064;-68
2022/07/18 03:09:32;;;;;;;;;;;;;;;12.24;100.00;91654.59;4993610;28;19917;-66
2022/07/18 03:11:58;;;;;;;;;;;;;;;12.18;100.00;91658.47;4993617;28;19921;-66
2022/07/18 03:14:23;;;;;;;;;;;;;;;12.14;100.00;91654.03;4993662;28;20399;-66
2022/07/18 03:16:49;;;;;;;;;;;;;;;12.12;100.00;91654.31;4993567;28;19992;-66
2022/07/18 03:19:14;;;;;;;;;;;;;;;12.02;100.00;91651.91;5148884;23;20382;-65
2022/07/18 03:21:39;;;;;;;;;;;;;;;12.01;100.00;91652.19;5033141;28;20402;-65
2022/07/18 03:24:05;;;;;;;;;;;;;;;11.94;100.00;91655.25;5033121;28;20345;-65
2022/07/18 03:26:30;;;;;;;;;;;;;;;11.99;100.00;91649.81;5033009;28;19964;-65
2022/07/18 03:28:55;;;;;;;;;;;;;;;12.02;100.00;91653.78;5032805;28;20009;-65
2022/07/18 03:31:21;;;;;;;;;;;;;;;12.01;100.00;91655.66;5032448;28;19921;-65
2022/07/18 03:33:46;;;;;;;;;;;;;;;12.02;100.00;91651.91;5032886;28;19983;-66
2022/07/18 03:36:12;;;;;;;;;;;;;;;11.99;100.00;91647.94;5032840;28;19913;-66
2022/07/18 03:38:37;;;;;;;;;;;;;;;12.12;100.00;91649.00;5032784;28;19913;-66
2022/07/18 03:41:03;;;;;;;;;;;;;;;12.14;100.00;91648.69;5033014;28;19944;-65
2022/07/18 03:43:28;;;;;;;;;;;;;;;12.17;100.00;91651.56;5032779;28;20302;-65
2022/07/18 03:45:54;;;;;;;;;;;;;;;12.23;100.00;91650.34;5032629;28;20366;-66
2022/07/18 03:48:19;;;;;;;;;;;;;;;12.28;100.00;91654.78;5032545;28;20428;-65
2022/07/18 03:50:44;;;;;;;;;;;;;;;12.34;100.00;91661.59;5032493;28;19917;-65
2022/07/18 03:53:10;;;;;;;;;;;;;;;12.33;100.00;91659.25;5032529;28;19920;-64
2022/07/18 03:55:35;;;;;;;;;;;;;;;12.27;100.00;91659.34;5032338;28;19913;-64
2022/07/18 03:58:00;;;;;;;;;;;;;;;12.23;100.00;91655.69;5032383;28;19913;-65
2022/07/18 04:00:26;;;;;;;;;;;;;;;12.21;100.00;91657.88;5032337;28;19913;-64
2022/07/18 04:02:51;;;;;;;;;;;;;;;12.24;100.00;91667.16;5032367;28;20034;-65
2022/07/18 04:05:17;;;;;;;;;;;;;;;12.33;100.00;91659.25;5032325;28;19975;-64
2022/07/18 04:07:42;;;;;;;;;;;;;;;12.41;100.00;91666.50;5032314;28;19913;-64
2022/07/18 04:10:08;;;;;;;;;;;;;;;12.53;100.00;91654.22;5032097;28;19913;-65
2022/07/18 04:12:34;;;;;;;;;;;;;;;12.62;100.00;91664.16;5031786;28;20420;-65
2022/07/18 04:14:59;;;;;;;;;;;;;;;12.73;100.00;91663.63;5032064;28;19959;-64
2022/07/18 04:17:24;;;;;;;;;;;;;;;12.83;100.00;91665.28;5031941;28;20378;-64
2022/07/18 04:19:50;;;;;;;;;;;;;;;12.80;100.00;91674.69;5031748;28;19949;-64
2022/07/18 04:22:16;;;;;;;;;;;;;;;12.86;100.00;91667.34;5032052;28;19920;-64
2022/07/18 04:24:41;;;;;;;;;;;;;;;12.91;100.00;91667.22;5031921;28;20011;-64
2022/07/18 04:27:06;;;;;;;;;;;;;;;13.01;100.00;91668.84;5031864;28;19913;-64
2022/07/18 04:29:32;;;;;;;;;;;;;;;13.13;100.00;91667.22;5031672;28;19913;-64
2022/07/18 04:31:57;;;;;;;;;;;;;;;13.21;100.00;91665.69;5031797;28;19913;-64
2022/07/18 04:34:23;;;;;;;;;;;;;;;13.23;100.00;91663.50;5031796;28;19920;-64
2022/07/18 04:36:48;;;;;;;;;;;;;;;13.29;100.00;91664.97;5031722;28;20400;-64
2022/07/18 04:39:13;;;;;;;;;;;;;;;13.35;100.00;91671.75;5031743;28;19963;-65
2022/07/18 04:41:39;;;;;;;;;;;;;;;13.41;100.00;91683.09;5014043;28;20046;-64
2022/07/18 04:44:04;;;;;;;;;;;;;;;13.52;97.84;91668.38;5031075;28;19917;-65
2022/07/18 04:46:30;;;;;;;;;;;;;;;13.60;96.57;91672.97;5031798;28;19917;-64
2022/07/18 04:48:55;;;;;;;;;;;;;;;13.70;95.88;91672.69;5031532;28;20306;-64
2022/07/18 04:51:20;;;;;;;;;;;;;;;13.78;94.94;91671.16;5031707;28;19913;-64
2022/07/18 04:53:46;;;;;;;;;;;;;;;13.82;93.31;91672.13;5013940;28;19917;-64
2022/07/18 04:56:11;;;;;;;;;;;;;;;13.95;91.50;91673.88;5031466;28;19913;-64
2022/07/18 04:58:36;;;;;;;;;;;;;;;14.11;89.83;91673.47;5031432;28;19913;-64
2022/07/18 05:01:02;;;;;;;;;;;;;;;14.23;87.99;91670.97;5031485;28;19966;-64
2022/07/18 05:03:27;;;;;;;;;;;;;;;14.34;85.71;91669.56;5031464;28;19920;-64
2022/07/18 05:05:52;;;;;;;;;;;;;;;14.47;84.93;91668.66;5031454;28;19913;-64
2022/07/18 05:08:18;;;;;;;;;;;;;;;14.56;82.28;91669.47;5031349;28;20008;-64
2022/07/18 05:10:43;;;;;;;;;;;;;;;14.75;79.78;91671.03;5031245;28;19917;-65
2022/07/18 05:13:09;;;;;;;;;;;;;;;14.87;76.70;91666.63;5031227;28;19921;-64
2022/07/18 05:15:34;;;;;;;;;;;;;;;15.06;74.88;91670.88;5031087;28;19916;-64
2022/07/18 05:17:59;;;;;;;;;;;;;;;15.27;72.04;91667.19;5030893;28;19970;-65
2022/07/18 05:20:25;;;;;;;;;;;;;;;15.47;68.46;91667.66;5031165;28;19963;-64
2022/07/18 05:22:51;;;;;;;;;;;;;;;15.66;66.60;91662.72;5031117;28;20318;-64
2022/07/18 05:25:17;;;;;;;;;;;;;;;15.90;64.84;91666.72;5031088;28;19920;-64
2022/07/18 05:27:43;;;;;;;;;;;;;;;16.09;62.86;91669.78;5031237;28;19996;-65
2022/07/18 05:30:10;;;;;;;;;;;;;;;16.28;61.31;91675.53;5031273;28;19913;-64
2022/07/18 05:32:36;;;;;;;;;;;;;;;16.45;61.06;91667.38;5031295;28;20302;-65
2022/07/18 05:35:01;;;;;;;;;;;;;;;16.57;59.11;91661.31;5030978;28;19913;-64
2022/07/18 05:37:26;;;;;;;;;;;;;;;16.81;57.57;91665.25;5031009;28;20024;-65
2022/07/18 05:39:52;;;;;;;;;;;;;;;17.06;54.27;91662.38;5030908;28;19913;-64
2022/07/18 05:42:18;;;;;;;;;;;;;;;18.99;52.50;91658.63;5031030;28;20011;-64
2022/07/18 05:44:43;;;;;;;;;;;;;;;23.56;44.48;91662.19;5031020;28;20406;-64
2022/07/18 05:47:09;;;;;;;;;;;;;;;27.10;36.07;91650.09;5031023;28;20016;-64
2022/07/18 05:49:34;;;;;;;;;;;;;;;29.23;33.27;91653.63;5030853;28;19923;-64
2022/07/18 05:51:59;;;;;;;;;;;;;;;31.38;29.70;91648.78;5030877;28;19917;-65
2022/07/18 05:54:24;;;;;;;;;;;;;;;32.30;28.61;91655.28;5032103;28;20352;-65
2022/07/18 05:56:51;;;;;;;;;;;;;;;34.12;26.49;91653.59;5034526;28;20004;-65
2022/07/18 05:59:17;;;;;;;;;;;;;;;35.26;25.81;91648.13;5034489;28;19920;-65
2022/07/18 06:01:43;;;;;;;;;;;;;;;34.95;25.38;91647.97;5034377;28;19913;-65
2022/07/18 06:04:08;;;;;;;;;;;;;;;34.34;26.43;91650.97;5034432;28;20413;-65
2022/07/18 06:06:34;;;;;;;;;;;;;;;35.68;24.85;91653.50;5016608;28;19917;-65
2022/07/18 06:08:59;;;;;;;;;;;;;;;37.04;22.83;91641.75;5034205;28;20401;-65
2022/07/18 06:11:24;;;;;;;;;;;;;;;37.12;22.83;91637.47;5034367;28;19979;-64
2022/07/18 06:13:49;;;;;;;;;;;;;;;34.53;23.95;91636.19;5034227;28;19913;-64
2022/07/18 06:16:15;;;;;;;;;;;;;;;34.38;22.76;91637.84;5034209;28;20012;-64
2022/07/18 06:18:40;;;;;;;;;;;;;;;32.69;25.66;91632.38;5034011;28;20353;-64
2022/07/18 06:21:06;;;;;;;;;;;;;;;33.86;23.94;91638.91;5034222;28;19913;-64
2022/07/18 06:23:32;;;;;;;;;;;;;;;35.54;23.65;91640.13;5034165;28;19913;-64
2022/07/18 06:25:57;;;;;;;;;;;;;;;35.76;22.12;91632.63;5034146;28;20379;-64
2022/07/18 06:28:23;;;;;;;;;;;;;;;33.40;25.32;91640.13;5033993;28;19919;-63
2022/07/18 06:30:48;;;;;;;;;;;;;;;32.06;26.10;91632.56;5034019;28;20399;-64
2022/07/18 06:33:14;;;;;;;;;;;;;;;32.37;27.29;91627.59;5034030;28;20420;-64
2022/07/18 06:35:40;;;;;;;;;;;;;;;32.68;26.85;91624.53;5033978;28;20391;-65
2022/07/18 06:38:05;;;;;;;;;;;;;;;33.51;24.40;91635.13;5033928;28;19971;-64
2022/07/18 06:40:30;;;;;;;;;;;;;;;35.73;22.98;91636.28;5034018;28;20020;-65
2022/07/18 06:42:56;;;;;;;;;;;;;;;35.93;22.85;91630.47;5033908;28;19920;-65
2022/07/18 06:45:21;;;;;;;;;;;;;;;36.63;22.07;91628.31;5033881;28;19913;-65
2022/07/18 06:47:47;;;;;;;;;;;;;;;34.32;24.10;91629.31;5033696;28;20444;-64
2022/07/18 06:50:13;;;;;;;;;;;;;;;35.97;22.69;91623.56;5033709;28;20401;-64
2022/07/18 06:52:40;;;;;;;;;;;;;;;37.34;21.90;91625.50;5033700;28;19919;-64
2022/07/18 06:55:06;;;;;;;;;;;;;;;35.54;22.38;91623.53;5033065;28;19924;-65
2022/07/18 06:57:31;;;;;;;;;;;;;;;33.83;24.29;91628.72;5033205;28;19920;-65
2022/07/18 06:59:56;;;;;;;;;;;;;;;34.02;23.29;91627.03;5033627;28;19913;-66
2022/07/18 07:02:22;;;;;;;;;;;;;;;34.15;22.71;91623.09;5033583;28;20007;-65
2022/07/18 07:04:47;;;;;;;;;;;;;;;33.97;23.57;91622.84;5033448;28;19913;-66
2022/07/18 07:07:12;;;;;;;;;;;;;;;37.03;22.03;91615.22;5032821;28;19913;-65
2022/07/18 07:09:38;;;;;;;;;;;;;;;36.62;22.35;91607.38;5033247;28;19918;-65
2022/07/18 07:12:03;;;;;;;;;;;;;;;36.54;22.36;91606.84;5033288;28;20000;-65
2022/07/18 07:14:28;;;;;;;;;;;;;;;36.52;22.13;91612.84;5033278;28;19944;-65
2022/07/18 07:16:54;;;;;;;;;;;;;;;36.85;22.10;91615.19;5033186;28;20317;-65
2022/07/18 07:19:19;;;;;;;;;;;;;;;37.61;20.80;91614.44;5032845;28;19921;-65
2022/07/18 07:21:44;;;;;;;;;;;;;;;37.31;20.82;91610.56;5033116;28;19959;-65
2022/07/18 07:24:10;;;;;;;;;;;;;;;38.76;20.64;91619.28;5032826;28;19917;-65
2022/07/18 07:26:35;;;;;;;;;;;;;;;38.52;19.71;91621.19;5033100;28;19966;-65
2022/07/18 07:29:01;;;;;;;;;;;;;;;37.87;20.55;91614.91;5032930;28;20465;-65
2022/07/18 07:31:26;;;;;;;;;;;;;;;38.65;20.39;91617.00;5032960;28;19913;-65
2022/07/18 07:33:51;;;;;;;;;;;;;;;37.37;20.81;91613.47;5032755;28;19913;-65
2022/07/18 07:36:16;;;;;;;;;;;;;;;39.29;20.25;91610.38;5032577;28;19960;-65
2022/07/18 07:38:42;;;;;;;;;;;;;;;39.55;19.04;91615.53;5032697;28;19913;-65
2022/07/18 07:41:07;;;;;;;;;;;;;;;38.02;19.64;91606.72;5032656;28;19913;-65
2022/07/18 07:43:32;;;;;;;;;;;;;;;38.79;19.28;91618.34;5032672;28;20390;-64
2022/07/18 07:45:58;;;;;;;;;;;;;;;38.78;19.75;91613.25;5032652;28;19917;-64
2022/07/18 07:48:23;;;;;;;;;;;;;;;39.04;19.89;91611.59;5032609;28;19917;-65
2022/07/18 07:50:50;;;;;;;;;;;;;;;37.45;21.31;91614.72;5032473;28;20399;-64
2022/07/18 07:53:16;;;;;;;;;;;;;;;38.52;20.49;91610.84;5032490;28;20310;-64
2022/07/18 07:55:41;;;;;;;;;;;;;;;36.98;21.62;91609.53;5032460;28;19913;-65
2022/07/18 07:58:06;;;;;;;;;;;;;;;37.09;23.03;91610.63;5032341;28;20000;-65
2022/07/18 08:00:32;;;;;;;;;;;;;;;36.61;23.35;91598.25;5032350;28;19970;-64
2022/07/18 08:03:02;;;;;;;;;;;;;;;36.90;23.89;91606.25;5032339;28;19971;-65
2022/07/18 08:05:29;;;;;;;;;;;;;;;37.68;21.31;91616.91;5032317;28;19913;-65
2022/07/18 08:07:54;;;;;;;;;;;;;;;39.80;20.51;91615.03;5032107;28;20330;-67
2022/07/18 08:10:20;;;;;;;;;;;;;;;38.30;21.12;91615.84;5032339;28;19917;-64
2022/07/18 08:12:45;;;;;;;;;;;;;;;36.60;22.23;91605.03;5031925;28;19913;-65
2022/07/18 08:15:10;;;;;;;;;;;;;;;36.47;22.10;91612.69;5032321;28;19920;-64
2022/07/18 08:17:36;;;;;;;;;;;;;;;36.00;21.75;91606.06;5031175;28;20398;-64
2022/07/18 08:20:01;;;;;;;;;;;;;;;36.66;22.48;91619.09;5031827;28;19917;-65
2022/07/18 08:22:27;;;;;;;;;;;;;;;35.94;23.33;91618.94;5032112;28;19971;-64
2022/07/18 08:24:52;;;;;;;;;;;;;;;37.72;21.83;91623.09;5031504;28;19917;-65
2022/07/18 08:27:17;;;;;;;;;;;;;;;37.24;19.87;91615.56;5039682;28;19913;-65
2022/07/18 08:29:43;;;;;;;;;;;;;;;35.66;22.23;91623.50;5031153;28;19917;-64
2022/07/18 08:32:08;;;;;;;;;;;;;;;36.56;21.78;91616.25;5031774;28;19913;-63
2022/07/18 08:34:33;;;;;;;;;;;;;;;36.35;21.89;91619.84;5031727;28;20007;-64
2022/07/18 08:36:59;;;;;;;;;;;;;;;37.88;21.62;91615.72;5031766;28;19921;-64
2022/07/18 08:39:24;;;;;;;;;;;;;;;37.96;22.39;91616.94;5031647;28;19925;-64
2022/07/18 08:41:50;;;;;;;;;;;;;;;37.06;21.65;91619.84;5031804;28;19923;-63
2022/07/18 08:44:16;;;;;;;;;;;;;;;36.45;22.34;91621.47;5031782;28;20009;-64
2022/07/18 08:46:43;;;;;;;;;;;;;;;39.20;21.04;91621.59;5014264;28;20383;-63
2022/07/18 08:49:09;;;;;;;;;;;;;;;37.97;22.41;91626.81;5012677;28;19921;-64
2022/07/18 08:51:35;;;;;;;;;;;;;;;37.04;23.46;91624.31;5011817;28;20318;-64
2022/07/18 08:54:01;;;;;;;;;;;;;;;37.60;23.08;91626.78;5011632;28;19945;-64
2022/07/18 08:56:27;;;;;;;;;;;;;;;36.59;23.70;91617.34;5011858;28;19935;-64
2022/07/18 08:58:52;;;;;;;;;;;;;;;36.95;24.53;91619.53;5011254;28;20381;-64
2022/07/18 09:01:17;;;;;;;;;;;;;;;38.29;24.18;91620.63;5011678;28;19921;-63
2022/07/18 09:03:43;;;;;;;;;;;;;;;37.25;25.22;91620.69;5011647;28;20422;-65
2022/07/18 09:06:10;;;;;;;;;;;;;;;37.55;24.67;91621.06;5011640;28;20410;-62
2022/07/18 09:08:37;;;;;;;;;;;;;;;36.44;24.48;91617.13;5011560;28;19913;-63
2022/07/18 09:11:03;;;;;;;;;;;;;;;38.35;22.83;91626.34;5011623;28;19914;-64
2022/07/18 09:13:38;;;;;;;;;;;;;;;36.24;24.32;91619.44;5011109;28;19918;-63
2022/07/18 09:16:08;;;;;;;;;;;;;;;35.38;25.23;91616.94;5011515;28;19913;-64
2022/07/18 09:18:35;;;;;;;;;;;;;;;35.43;23.95;91618.34;5011245;28;19917;-63
2022/07/18 09:21:03;;;;;;;;;;;;;;;35.91;23.58;91619.84;5011569;28;19917;-63
2022/07/18 09:23:29;;;;;;;;;;;;;;;35.39;24.30;91617.72;5011560;28;19920;-63
2022/07/18 09:25:55;;;;;;;;;;;;;;;35.18;25.18;91626.69;5011633;28;19922;-63
2022/07/18 09:28:20;;;;;;;;;;;;;;;35.16;24.93;91618.06;5010865;28;19996;-63
2022/07/18 09:30:45;;;;;;;;;;;;;;;36.07;24.29;91616.09;5014827;28;20406;-64
2022/07/18 09:33:11;;;;;;;;;;;;;;;35.18;24.81;91613.63;5015260;28;19968;-63
2022/07/18 09:35:44;;;;;;;;;;;;;;;35.93;23.43;91619.41;5018433;28;20310;-63
2022/07/18 09:38:11;;;;;;;;;;;;;;;35.57;23.31;91617.09;5033837;28;19967;-63
2022/07/18 09:40:38;;;;;;;;;;;;;;;37.07;23.43;91624.16;5028721;28;20963;-63
2022/07/18 09:43:05;;;;;;;;;;;;;;;36.70;22.78;91625.25;5033994;28;20011;-62
2022/07/18 09:45:32;;;;;;;;;;;;;;;37.17;22.57;91624.97;5033365;28;19920;-63
2022/07/18 09:47:58;;;;;;;;;;;;;;;32.43;26.76;91614.84;5034446;28;19927;-63
2022/07/18 09:50:30;;;;;;;;;;;;;;;34.62;25.04;91616.97;5034002;28;20295;-64
2022/07/18 09:52:59;;;;;;;;;;;;;;;35.37;23.89;91609.84;5033960;28;20008;-64
2022/07/18 09:55:25;;;;;;;;;;;;;;;36.40;23.73;91610.94;5033572;28;19921;-64
2022/07/18 09:57:58;;;;;;;;;;;;;;;38.04;22.37;91609.84;5032691;28;19916;-64
2022/07/18 10:00:25;;;;;;;;;;;;;;;37.56;21.64;91612.28;5032924;28;20012;-64
2022/07/18 10:02:50;;;;;;;;;;;;;;;36.42;23.73;91602.94;5030604;28;19921;-64
2022/07/18 10:05:16;;;;;;;;;;;;;;;36.34;23.55;91615.53;5033481;28;19920;-64
2022/07/18 10:07:41;;;;;;;;;;;;;;;36.31;22.16;91608.09;5034175;28;19917;-64
2022/07/18 10:10:07;;;;;;;;;;;;;;;35.81;23.86;91612.66;5034143;28;19913;-64
2022/07/18 10:12:33;;;;;;;;;;;;;;;36.50;22.99;91609.78;5033997;28;20310;-64
2022/07/18 10:14:58;;;;;;;;;;;;;;;37.53;21.39;91615.19;5034403;28;20375;-65
2022/07/18 10:17:24;;;;;;;;;;;;;;;37.61;22.38;91614.44;5034048;28;20733;-64
2022/07/18 10:19:49;;;;;;;;;;;;;;;37.23;21.84;91608.50;5033849;28;19928;-65
2022/07/18 10:22:15;;;;;;;;;;;;;;;36.08;22.95;91611.34;5034004;28;19924;-65
2022/07/18 10:24:41;;;;;;;;;;;;;;;36.10;21.71;91606.13;5034068;28;20311;-64
2022/07/18 10:27:16;;;;;;;;;;;;;;;36.20;21.97;91607.72;5033636;28;20390;-64
2022/07/18 10:30:00;;;;;;;;;;;;;;;35.86;22.21;91603.81;5034052;28;19920;-64
2022/07/18 10:32:32;;;;;;;;;;;;;;;36.22;22.06;91603.28;5033981;28;20405;-64
2022/07/18 10:34:57;;;;;;;;;;;;;;;35.15;21.80;91603.44;5033949;28;19913;-64
2022/07/18 10:37:30;;;;;;;;;;;;;;;34.90;21.87;91597.97;5033653;28;20083;-63
2022/07/18 10:40:16;;;;;;;;;;;;;;;35.12;22.58;91598.81;5033673;28;19971;-64
2022/07/18 10:42:41;;;;;;;;;;;;;;;35.89;22.38;91589.06;5032394;28;19998;-65
2022/07/18 10:45:26;;;;;;;;;;;;;;;37.50;22.79;91594.69;5033757;28;19963;-65
2022/07/18 10:47:51;;;;;;;;;;;;;;;38.15;21.28;91593.44;5032156;28;19920;-65
2022/07/18 10:50:17;;;;;;;;;;;;;;;38.68;20.68;91595.84;5033840;28;19913;-66
2022/07/18 10:52:42;;;;;;;;;;;;;;;37.33;21.48;91591.44;5033782;28;19919;-64
2022/07/18 10:55:08;;;;;;;;;;;;;;;35.22;22.30;91589.41;5033726;28;19913;-65
2022/07/18 10:57:34;;;;;;;;;;;;;;;35.55;22.80;91580.78;5033466;28;19913;-65
2022/07/18 11:00:00;;;;;;;;;;;;;;;36.46;21.85;91586.97;5033477;28;19967;-65
2022/07/18 11:02:33;;;;;;;;;;;;;;;37.39;21.61;91584.03;5033527;28;19913;-65
2022/07/18 11:04:59;;;;;;;;;;;;;;;35.63;21.68;91571.00;5033517;28;19971;-63
2022/07/18 11:07:24;;;;;;;;;;;;;;;35.02;23.70;91575.03;5033461;28;20132;-64
2022/07/18 11:09:50;;;;;;;;;;;;;;;36.50;21.39;91572.97;5028135;28;19921;-64
2022/07/18 11:12:18;;;;;;;;;;;;;;;37.36;21.33;91568.28;5013660;28;19917;-65
2022/07/18 11:15:00;;;;;;;;;;;;;;;35.69;22.93;91563.66;5013765;28;19975;-65
2022/07/18 11:17:44;;;;;;;;;;;;;;;34.92;23.34;91567.88;5013318;28;19914;-65
2022/07/18 11:20:29;;;;;;;;;;;;;;;34.04;23.99;91556.34;5013369;28;19922;-66
2022/07/18 11:22:55;;;;;;;;;;;;;;;35.36;23.54;91558.50;5013497;28;19922;-65
2022/07/18 11:25:23;;;;;;;;;;;;;;;36.80;22.40;91565.88;5013431;28;19913;-64
2022/07/18 11:27:49;;;;;;;;;;;;;;;37.33;22.24;91563.66;4995647;28;20379;-64
2022/07/18 11:30:19;;;;;;;;;;;;;;;37.56;22.54;91569.84;5013352;28;19927;-64
2022/07/18 11:32:44;;;;;;;;;;;;;;;37.36;22.56;91571.06;5013246;28;19971;-64
2022/07/18 11:35:10;;;;;;;;;;;;;;;36.90;22.63;91570.19;5013270;28;19917;-64
2022/07/18 11:37:36;;;;;;;;;;;;;;;36.42;22.10;91563.38;5013011;28;19913;-64
2022/07/18 11:40:08;;;;;;;;;;;;;;;38.10;21.65;91557.19;5013144;28;19921;-64
2022/07/18 11:42:37;;;;;;;;;;;;;;;36.99;22.17;91555.59;5013130;28;19914;-64
2022/07/18 11:45:03;;;;;;;;;;;;;;;34.79;22.95;91551.28;5013050;28;19960;-64
2022/07/18 11:47:28;;;;;;;;;;;;;;;34.73;23.27;91553.84;5012869;28;19952;-64
2022/07/18 11:49:54;;;;;;;;;;;;;;;35.08;23.11;91554.69;5012871;28;19929;-64
2022/07/18 11:52:20;;;;;;;;;;;;;;;34.30;23.61;91550.84;5012702;28;19917;-65
2022/07/18 11:54:45;;;;;;;;;;;;;;;36.32;23.21;91545.94;5012458;28;19913;-65
2022/07/18 11:57:10;;;;;;;;;;;;;;;35.62;23.22;91545.31;5012675;28;19913;-65
2022/07/18 11:59:37;;;;;;;;;;;;;;;34.45;24.32;91547.25;5012765;28;20311;-64
2022/07/18 12:02:03;;;;;;;;;;;;;;;34.54;23.60;91549.31;5012714;28;19913;-64
2022/07/18 12:04:29;;;;;;;;;;;;;;;34.12;24.09;91541.13;5012717;28;20307;-65
2022/07/18 12:07:12;;;;;;;;;;;;;;;36.04;23.97;91539.47;5016017;28;19929;-66
2022/07/18 12:09:37;;;;;;;;;;;;;;;35.92;22.35;91532.78;5052077;28;19913;-65
2022/07/18 12:12:09;;;;;;;;;;;;;;;36.13;22.79;91539.50;5051900;28;19935;-66
2022/07/18 12:14:37;;;;;;;;;;;;;;;34.98;23.64;91538.44;5052216;28;19920;-65
2022/07/18 12:17:02;;;;;;;;;;;;;;;35.79;22.33;91537.56;5051736;28;20439;-65
2022/07/18 12:19:34;;;;;;;;;;;;;;;36.46;23.68;91528.75;5051762;28;19916;-64
2022/07/18 12:22:02;;;;;;;;;;;;;;;35.64;24.05;91531.00;5051379;28;19924;-64
2022/07/18 12:24:41;;;;;;;;;;;;;;;34.36;24.20;91532.53;5051845;28;20016;-65
2022/07/18 12:27:17;;;;;;;;;;;;;;;35.37;24.39;91524.06;5051734;28;19913;-66
2022/07/18 12:29:52;;;;;;;;;;;;;;;35.36;24.57;91525.31;5051487;28;20058;-65
2022/07/18 12:32:18;;;;;;;;;;;;;;;36.45;24.29;91523.66;5051670;28;19912;-65
2022/07/18 12:35:06;;;;;;;;;;;;;;;36.48;22.91;91528.31;5051654;28;19985;-66
2022/07/18 12:37:31;;;;;;;;;;;;;;;35.54;23.41;91512.81;5030956;28;19924;-65
2022/07/18 12:40:08;;;;;;;;;;;;;;;34.65;25.07;91519.34;5031797;28;19913;-65
2022/07/18 12:42:35;;;;;;;;;;;;;;;35.83;23.68;91518.09;5032051;28;19971;-64